createdAt,value
2018-07-23T00:02:25.673Z,100320.36
2018-07-23T00:05:23.402Z,100328.81
2018-07-23T00:08:21.498Z,100325.79
2018-07-23T00:11:19.407Z,100323.99
2018-07-23T00:14:17.551Z,100323.03
2018-07-23T00:17:15.614Z,100318.20
2018-07-23T00:20:12.799Z,100322.20
2018-07-23T00:23:10.073Z,100315.34
2018-07-23T00:26:07.445Z,100322.95
2018-07-23T00:29:05.553Z,100316.92
2018-07-23T00:32:02.637Z,100322.09
2018-07-23T00:35:00.926Z,100322.16
2018-07-23T00:37:58.603Z,100325.32
2018-07-23T00:40:56.745Z,100323.33
2018-07-23T00:43:54.647Z,100327.88
2018-07-23T00:46:52.627Z,100327.91
2018-07-23T00:49:50.451Z,100328.84
2018-07-23T00:52:48.510Z,100328.33
2018-07-23T00:55:45.730Z,100328.30
2018-07-23T00:58:43.879Z,100325.86
2018-07-23T01:01:41.821Z,100330.72
2018-07-23T01:04:39.727Z,100335.00
2018-07-23T01:07:37.508Z,100338.30
2018-07-23T01:10:35.449Z,100338.99
2018-07-23T01:13:33.466Z,100342.00
2018-07-23T01:16:31.330Z,100333.38
2018-07-23T01:19:29.374Z,100331.36
2018-07-23T01:22:27.492Z,100339.66
2018-07-23T01:25:25.406Z,100339.34
2018-07-23T01:28:23.725Z,100339.02
2018-07-23T01:31:21.682Z,100341.38
2018-07-23T01:34:18.846Z,100344.03
2018-07-23T01:37:16.966Z,100335.25
2018-07-23T01:40:15.027Z,100336.75
2018-07-23T01:43:13.127Z,100336.92
2018-07-23T01:46:10.998Z,100338.23
2018-07-23T01:49:08.923Z,100338.91
2018-07-23T01:52:05.990Z,100339.75
2018-07-23T01:55:03.557Z,100336.40
2018-07-23T01:58:01.265Z,100332.42
2018-07-23T02:00:58.686Z,100339.05
2018-07-23T02:03:56.733Z,100338.08
2018-07-23T02:06:54.007Z,100339.44
2018-07-23T02:09:51.260Z,100345.55
2018-07-23T02:12:48.579Z,100340.06
2018-07-23T02:15:46.626Z,100340.89
2018-07-23T02:18:43.998Z,100346.70
2018-07-23T02:21:43.164Z,100344.55
2018-07-23T02:24:41.270Z,100343.04
2018-07-23T02:27:39.226Z,100346.17
2018-07-23T02:30:37.468Z,100343.36
2018-07-23T02:33:35.371Z,100345.33
2018-07-23T02:36:33.408Z,100353.47
2018-07-23T02:39:31.480Z,100346.69
2018-07-23T02:42:29.718Z,100351.14
2018-07-23T02:45:26.981Z,100343.16
2018-07-23T02:48:24.909Z,100341.49
2018-07-23T02:51:22.991Z,100341.81
2018-07-23T02:54:21.010Z,100339.31
2018-07-23T02:57:19.181Z,100344.14
2018-07-23T03:00:17.044Z,100348.48
2018-07-23T03:03:14.925Z,100344.34
2018-07-23T03:06:13.095Z,100352.12
2018-07-23T03:09:10.374Z,100350.92
2018-07-23T03:12:08.510Z,100350.08
2018-07-23T03:15:06.490Z,100355.89
2018-07-23T03:18:04.493Z,100356.23
2018-07-23T03:21:02.768Z,100360.06
2018-07-23T03:24:00.314Z,100365.56
2018-07-23T03:26:58.350Z,100375.18
2018-07-23T03:29:56.379Z,100380.14
2018-07-23T03:32:53.442Z,100390.23
2018-07-23T03:35:51.387Z,100398.59
2018-07-23T03:38:49.042Z,100396.30
2018-07-23T03:41:47.018Z,100406.51
2018-07-23T03:44:44.222Z,100407.42
2018-07-23T03:47:42.263Z,100404.41
2018-07-23T03:50:40.154Z,100399.09
2018-07-23T03:53:38.101Z,100398.69
2018-07-23T03:56:35.893Z,100402.92
2018-07-23T03:59:34.067Z,100400.34
2018-07-23T04:02:32.009Z,100401.98
2018-07-23T04:05:30.023Z,100401.05
2018-07-23T04:08:27.274Z,100394.80
2018-07-23T04:11:25.130Z,100400.16
2018-07-23T04:14:23.131Z,100400.70
2018-07-23T04:17:21.363Z,100401.67
2018-07-23T04:20:19.265Z,100408.84
2018-07-23T04:23:17.058Z,100404.52
2018-07-23T04:26:15.194Z,100402.66
2018-07-23T04:29:13.313Z,100397.72
2018-07-23T04:32:11.199Z,100396.67
2018-07-23T04:35:09.282Z,100401.83
2018-07-23T04:38:07.126Z,100405.72
2018-07-23T04:41:05.210Z,100408.69
2018-07-23T04:44:03.328Z,100407.61
2018-07-23T04:47:01.234Z,100409.42
2018-07-23T04:49:59.006Z,100406.14
2018-07-23T04:52:57.191Z,100409.97
2018-07-23T04:55:54.390Z,100410.80
2018-07-23T04:58:52.548Z,100415.83
2018-07-23T05:01:50.429Z,100418.84
2018-07-23T05:04:47.413Z,100416.45
2018-07-23T05:07:45.556Z,100422.91
2018-07-23T05:10:43.719Z,100416.75
2018-07-23T05:13:41.975Z,100424.95
2018-07-23T05:16:40.235Z,100424.95
2018-07-23T05:19:37.360Z,100420.53
2018-07-23T05:22:35.395Z,100419.63
2018-07-23T05:25:32.714Z,100412.92
2018-07-23T05:28:30.526Z,100420.00
2018-07-23T05:31:28.682Z,100420.88
2018-07-23T05:34:26.014Z,100414.80
2018-07-23T05:37:24.130Z,100421.74
2018-07-23T05:40:22.111Z,100424.34
2018-07-23T05:43:19.126Z,100425.33
2018-07-23T05:46:17.162Z,100414.06
2018-07-23T05:49:15.143Z,100419.14
2018-07-23T05:52:13.043Z,100418.00
2018-07-23T05:55:11.062Z,100415.23
2018-07-23T05:58:10.143Z,100426.13
2018-07-23T06:01:08.242Z,100434.25
2018-07-23T06:04:06.205Z,100430.74
2018-07-23T06:07:04.050Z,100423.27
2018-07-23T06:10:01.908Z,100432.34
2018-07-23T06:12:59.984Z,100439.93
2018-07-23T06:15:58.041Z,100429.59
2018-07-23T06:18:55.502Z,100431.97
2018-07-23T06:21:53.543Z,100444.66
2018-07-23T06:24:51.582Z,100442.63
2018-07-23T06:47:25.086Z,100435.92
2018-07-23T06:50:22.647Z,100443.75
2018-07-23T06:53:20.713Z,100462.95
2018-07-23T06:56:18.812Z,100462.50
2018-07-23T06:59:16.714Z,100455.72
2018-07-23T07:02:13.846Z,100468.19
2018-07-23T07:05:11.946Z,100455.62
2018-07-23T07:08:09.338Z,100449.77
2018-07-23T07:11:07.199Z,100443.99
2018-07-23T07:14:04.454Z,100446.27
2018-07-23T07:17:02.452Z,100447.61
2018-07-23T07:20:00.320Z,100449.45
2018-07-23T07:22:58.418Z,100439.77
2018-07-23T07:25:56.344Z,100454.28
2018-07-23T07:28:54.488Z,100451.82
2018-07-23T07:31:52.318Z,100462.72
2018-07-23T07:34:50.258Z,100463.56
2018-07-23T07:37:48.454Z,100460.98
2018-07-23T07:40:47.414Z,100450.85
2018-07-23T07:43:44.933Z,100456.03
2018-07-23T07:46:43.238Z,100460.19
2018-07-23T07:49:40.566Z,100450.63
2018-07-23T07:52:38.873Z,100469.55
2018-07-23T07:55:36.804Z,100460.44
2018-07-23T07:58:34.295Z,100458.05
2018-07-23T08:01:31.450Z,100450.98
2018-07-23T08:04:29.496Z,100444.23
2018-07-23T08:07:27.489Z,100452.70
2018-07-23T08:10:25.558Z,100444.11
2018-07-23T08:13:23.344Z,100451.23
2018-07-23T08:16:20.702Z,100446.61
2018-07-23T08:19:18.795Z,100461.64
2018-07-23T08:22:16.743Z,100455.66
2018-07-23T08:25:14.728Z,100447.91
2018-07-23T08:28:12.710Z,100455.25
2018-07-23T08:31:10.871Z,100453.21
2018-07-23T08:34:08.854Z,100448.78
2018-07-23T08:37:06.961Z,100440.95
2018-07-23T08:40:05.119Z,100441.81
2018-07-23T08:43:03.127Z,100449.89
2018-07-23T08:46:00.464Z,100454.03
2018-07-23T08:48:58.432Z,100462.59
2018-07-23T08:51:56.387Z,100460.81
2018-07-23T08:54:54.591Z,100458.73
2018-07-23T08:57:52.535Z,100447.97
2018-07-23T09:00:50.618Z,100450.67
2018-07-23T09:03:48.522Z,100449.10
2018-07-23T09:06:46.670Z,100460.79
2018-07-23T09:09:44.641Z,100462.52
2018-07-23T09:12:42.527Z,100460.84
2018-07-23T09:15:40.484Z,100464.60
2018-07-23T09:18:38.415Z,100462.84
2018-07-23T09:21:36.451Z,100454.61
2018-07-23T09:24:34.428Z,100450.87
2018-07-23T09:27:32.286Z,100448.58
2018-07-23T09:30:36.146Z,100466.07
2018-07-23T09:33:34.101Z,100467.46
2018-07-23T09:36:31.730Z,100466.90
2018-07-23T09:39:30.660Z,100464.44
2018-07-23T09:42:28.608Z,100455.95
2018-07-23T09:45:26.423Z,100472.81
2018-07-23T09:48:24.319Z,100463.46
2018-07-23T09:51:22.221Z,100455.64
2018-07-23T09:54:20.107Z,100445.24
2018-07-23T09:57:17.379Z,100439.58
2018-07-23T10:00:15.463Z,100451.94
2018-07-23T10:03:12.810Z,100444.27
2018-07-23T10:06:10.550Z,100443.28
2018-07-23T10:09:08.334Z,100442.27
2018-07-23T10:12:06.472Z,100436.40
2018-07-23T10:15:03.726Z,100438.83
2018-07-23T10:18:01.802Z,100445.50
2018-07-23T10:20:59.003Z,100441.29
2018-07-23T10:23:56.287Z,100442.83
2018-07-23T10:26:54.132Z,100441.80
2018-07-23T10:29:52.062Z,100430.08
2018-07-23T10:32:50.153Z,100435.77
2018-07-23T10:35:48.013Z,100444.88
2018-07-23T10:38:45.239Z,100434.35
2018-07-23T10:41:42.352Z,100437.66
2018-07-23T10:44:40.514Z,100446.86
2018-07-23T10:47:38.483Z,100443.72
2018-07-23T10:50:36.491Z,100440.87
2018-07-23T10:53:34.238Z,100429.70
2018-07-23T10:56:32.254Z,100437.57
2018-07-23T10:59:29.430Z,100429.63
2018-07-23T11:02:27.480Z,100428.56
2018-07-23T11:05:25.537Z,100428.45
2018-07-23T11:08:22.811Z,100420.91
2018-07-23T11:11:20.882Z,100421.19
2018-07-23T11:14:18.959Z,100429.33
2018-07-23T11:17:16.737Z,100424.02
2018-07-23T11:20:14.657Z,100425.02
2018-07-23T11:23:12.990Z,100428.56
2018-07-23T11:26:10.162Z,100424.85
2018-07-23T11:29:07.462Z,100430.14
2018-07-23T11:32:05.541Z,100424.48
2018-07-23T11:35:03.488Z,100431.59
2018-07-23T11:38:01.506Z,100446.09
2018-07-23T11:40:59.882Z,100440.05
2018-07-23T11:43:57.989Z,100434.76
2018-07-23T11:46:55.849Z,100439.94
2018-07-23T11:49:53.793Z,100437.65
2018-07-23T11:52:51.878Z,100435.98
2018-07-23T11:55:49.997Z,100437.63
2018-07-23T11:58:47.818Z,100435.98
2018-07-23T12:01:45.947Z,100439.33
2018-07-23T12:04:44.372Z,100438.84
2018-07-23T12:07:41.967Z,100427.70
2018-07-23T12:10:40.037Z,100428.31
2018-07-23T12:13:38.091Z,100429.52
2018-07-23T12:16:35.305Z,100426.34
2018-07-23T12:19:33.471Z,100422.78
2018-07-23T12:22:31.711Z,100430.84
2018-07-23T12:25:29.627Z,100418.30
2018-07-23T12:28:27.535Z,100417.98
2018-07-23T12:31:25.584Z,100421.61
2018-07-23T12:34:23.805Z,100419.14
2018-07-23T12:37:21.752Z,100424.98
2018-07-23T12:40:19.817Z,100422.44
2018-07-23T12:43:17.773Z,100425.25
2018-07-23T12:46:15.692Z,100429.13
2018-07-23T12:49:13.814Z,100420.77
2018-07-23T12:52:11.899Z,100415.93
2018-07-23T12:55:08.938Z,100412.61
2018-07-23T12:58:07.135Z,100414.44
2018-07-23T13:01:05.179Z,100411.16
2018-07-23T13:04:03.453Z,100414.33
2018-07-23T13:07:01.479Z,100417.80
2018-07-23T13:09:59.445Z,100422.36
2018-07-23T13:12:57.349Z,100409.97
2018-07-23T13:15:55.359Z,100405.62
2018-07-23T13:18:53.549Z,100421.23
2018-07-23T13:21:51.559Z,100417.34
2018-07-23T13:24:49.576Z,100418.30
2018-07-23T13:27:46.642Z,100422.23
2018-07-23T13:30:43.714Z,100419.10
2018-07-23T13:33:41.793Z,100417.12
2018-07-23T13:36:39.722Z,100416.63
2018-07-23T13:39:37.680Z,100416.35
2018-07-23T13:42:35.578Z,100399.78
2018-07-23T13:45:42.067Z,100402.80
2018-07-23T13:48:39.878Z,100407.84
2018-07-23T13:51:37.862Z,100401.32
2018-07-23T13:54:35.775Z,100402.87
2018-07-23T13:57:33.998Z,100393.85
2018-07-23T14:00:31.864Z,100392.50
2018-07-23T14:03:29.570Z,100395.36
2018-07-23T14:06:27.358Z,100390.83
2018-07-23T14:09:25.473Z,100384.98
2018-07-23T14:12:23.225Z,100377.49
2018-07-23T14:15:21.505Z,100380.27
2018-07-23T14:18:19.493Z,100386.12
2018-07-23T14:21:17.244Z,100386.94
2018-07-23T14:24:14.845Z,100391.10
2018-07-23T14:27:12.700Z,100391.76
2018-07-23T14:30:10.721Z,100379.37
2018-07-23T14:33:08.542Z,100369.80
2018-07-23T14:36:06.614Z,100375.93
2018-07-23T14:39:04.491Z,100372.14
2018-07-23T14:42:02.475Z,100373.55
2018-07-23T14:45:00.689Z,100378.27
2018-07-23T14:47:58.726Z,100370.77
2018-07-23T14:50:56.566Z,100372.21
2018-07-23T14:53:54.683Z,100373.59
2018-07-23T14:56:52.678Z,100368.62
2018-07-23T14:59:50.635Z,100366.63
2018-07-23T15:02:48.403Z,100370.32
2018-07-23T15:05:46.283Z,100375.78
2018-07-23T15:08:44.234Z,100368.30
2018-07-23T15:11:42.423Z,100359.77
2018-07-23T15:14:40.274Z,100363.88
2018-07-23T15:17:38.063Z,100359.33
2018-07-23T15:20:36.022Z,100369.15
2018-07-23T15:23:34.206Z,100367.03
2018-07-23T15:26:32.298Z,100368.17
2018-07-23T15:29:30.465Z,100377.55
2018-07-23T15:32:28.399Z,100372.84
2018-07-23T15:35:26.214Z,100368.97
2018-07-23T15:38:24.312Z,100364.50
2018-07-23T15:41:22.217Z,100367.08
2018-07-23T15:44:20.467Z,100368.97
2018-07-23T15:47:18.594Z,100360.98
2018-07-23T15:50:16.788Z,100352.13
2018-07-23T15:53:14.966Z,100365.28
2018-07-23T15:56:12.962Z,100359.37
2018-07-23T15:59:11.229Z,100360.50
2018-07-23T16:02:09.097Z,100363.56
2018-07-23T16:05:06.835Z,100354.67
2018-07-23T16:08:04.699Z,100358.52
2018-07-23T16:11:02.567Z,100353.33
2018-07-23T16:14:00.683Z,100354.17
2018-07-23T16:16:58.823Z,100351.81
2018-07-23T16:19:56.941Z,100348.98
2018-07-23T16:22:54.667Z,100346.09
2018-07-23T16:25:52.581Z,100346.09
2018-07-23T16:28:50.746Z,100336.25
2018-07-23T16:31:48.813Z,100344.77
2018-07-23T16:34:46.718Z,100341.59
2018-07-23T16:37:44.662Z,100341.55
2018-07-23T16:40:42.586Z,100338.12
2018-07-23T16:43:40.571Z,100336.80
2018-07-23T16:46:38.763Z,100341.05
2018-07-23T16:49:36.748Z,100334.13
2018-07-23T16:52:34.655Z,100336.61
2018-07-23T16:55:32.582Z,100346.59
2018-07-23T16:58:30.379Z,100337.53
2018-07-23T17:01:28.220Z,100342.14
2018-07-23T17:04:26.231Z,100343.88
2018-07-23T17:07:24.266Z,100341.83
2018-07-23T17:10:22.359Z,100344.62
2018-07-23T17:13:20.239Z,100340.24
2018-07-23T17:16:18.349Z,100341.25
2018-07-23T17:19:16.506Z,100341.59
2018-07-23T17:22:14.492Z,100339.27
2018-07-23T17:25:12.429Z,100337.02
2018-07-23T17:28:10.547Z,100341.13
2018-07-23T17:31:08.651Z,100343.06
2018-07-23T17:34:06.567Z,100342.63
2018-07-23T17:37:04.599Z,100339.59
2018-07-23T17:40:02.578Z,100338.61
2018-07-23T17:43:00.509Z,100345.73
2018-07-23T17:45:58.483Z,100347.09
2018-07-23T17:48:56.474Z,100348.08
2018-07-23T17:51:54.388Z,100352.55
2018-07-23T17:54:52.419Z,100345.89
2018-07-23T17:57:50.303Z,100349.53
2018-07-23T18:00:48.298Z,100349.27
2018-07-23T18:03:46.223Z,100345.50
2018-07-23T18:06:44.177Z,100347.03
2018-07-23T18:09:42.458Z,100346.70
2018-07-23T18:12:40.418Z,100347.20
2018-07-23T18:15:38.436Z,100353.38
2018-07-23T18:18:36.326Z,100354.30
2018-07-23T18:21:34.320Z,100353.33
2018-07-23T18:24:32.118Z,100362.69
2018-07-23T18:27:29.916Z,100356.81
2018-07-23T18:30:28.861Z,100350.71
2018-07-23T18:33:26.042Z,100357.90
2018-07-23T18:36:25.086Z,100352.59
2018-07-23T18:39:24.355Z,100353.23
2018-07-23T18:42:22.346Z,100350.34
2018-07-23T18:45:20.427Z,100352.05
2018-07-23T18:48:23.630Z,100356.31
2018-07-23T18:51:21.001Z,100362.11
2018-07-23T18:54:18.202Z,100351.81
2018-07-23T18:57:16.349Z,100355.16
2018-07-23T19:00:14.079Z,100358.36
2018-07-23T19:03:12.056Z,100358.22
2018-07-23T19:06:10.270Z,100357.25
2018-07-23T19:09:08.127Z,100359.27
2018-07-23T19:12:06.140Z,100359.03
2018-07-23T19:15:04.267Z,100364.07
2018-07-23T19:18:02.232Z,100354.03
2018-07-23T19:21:00.380Z,100358.17
2018-07-23T19:23:58.401Z,100370.86
2018-07-23T19:26:56.504Z,100366.94
2018-07-23T19:29:53.834Z,100366.03
2018-07-23T19:32:51.874Z,100367.48
2018-07-23T19:35:50.174Z,100373.39
2018-07-23T19:38:48.174Z,100376.41
2018-07-23T19:41:46.256Z,100377.91
2018-07-23T19:44:44.497Z,100376.31
2018-07-23T19:47:42.731Z,100386.30
2018-07-23T19:50:40.551Z,100388.14
2018-07-23T19:53:38.414Z,100392.76
2018-07-23T19:56:35.663Z,100390.31
2018-07-23T19:59:33.577Z,100393.15
2018-07-23T20:02:31.429Z,100389.06
2018-07-23T20:05:29.473Z,100388.18
2018-07-23T20:08:26.785Z,100386.14
2018-07-23T20:11:24.842Z,100394.65
2018-07-23T20:14:22.802Z,100393.39
2018-07-23T20:17:20.936Z,100380.29
2018-07-23T20:20:20.124Z,100386.05
2018-07-23T20:23:18.232Z,100386.55
2018-07-23T20:26:16.372Z,100376.64
2018-07-23T20:29:14.099Z,100384.16
2018-07-23T20:32:12.306Z,100375.30
2018-07-23T20:35:10.232Z,100382.91
2018-07-23T20:38:08.182Z,100380.53
2018-07-23T20:41:06.030Z,100386.01
2018-07-23T20:44:03.993Z,100380.53
2018-07-23T20:47:02.098Z,100390.74
2018-07-23T20:50:00.096Z,100389.89
2018-07-23T20:52:58.218Z,100392.13
2018-07-23T20:55:56.451Z,100394.90
2018-07-23T20:58:54.333Z,100389.64
2018-07-23T21:01:52.157Z,100390.22
2018-07-23T21:04:50.218Z,100395.53
2018-07-23T21:07:48.427Z,100398.57
2018-07-23T21:10:46.497Z,100400.58
2018-07-23T21:13:44.563Z,100394.02
2018-07-23T21:16:42.518Z,100400.34
2018-07-23T21:19:39.759Z,100401.27
2018-07-23T21:22:37.750Z,100400.03
2018-07-23T21:25:35.745Z,100403.28
2018-07-23T21:28:32.694Z,100401.16
2018-07-23T21:31:30.581Z,100402.47
2018-07-23T21:34:28.634Z,100407.55
2018-07-23T21:37:26.590Z,100405.58
2018-07-23T21:40:24.623Z,100399.48
2018-07-23T21:43:22.822Z,100404.19
2018-07-23T21:46:20.790Z,100404.20
2018-07-23T21:49:18.096Z,100403.80
2018-07-23T21:52:16.267Z,100409.33
2018-07-23T21:55:14.174Z,100404.70
2018-07-23T21:58:12.406Z,100408.45
2018-07-23T22:01:10.417Z,100413.25
2018-07-23T22:04:08.550Z,100413.89
2018-07-23T22:07:06.526Z,100409.41
2018-07-23T22:10:04.538Z,100412.64
2018-07-23T22:13:02.296Z,100412.34
2018-07-23T22:15:59.354Z,100417.69
2018-07-23T22:18:57.338Z,100418.42
2018-07-23T22:21:55.414Z,100424.36
2018-07-23T22:24:53.209Z,100426.28
2018-07-23T22:27:50.331Z,100426.89
2018-07-23T22:30:48.257Z,100421.93
2018-07-23T22:33:45.958Z,100424.04
2018-07-23T22:36:44.038Z,100430.09
2018-07-23T22:39:42.019Z,100426.39
2018-07-23T22:42:40.889Z,100420.59
2018-07-23T22:45:38.915Z,100423.85
2018-07-23T22:48:36.914Z,100415.94
2018-07-23T22:51:34.858Z,100425.38
2018-07-23T22:54:32.822Z,100418.34
2018-07-23T22:57:30.935Z,100420.19
2018-07-23T23:00:28.030Z,100419.16
2018-07-23T23:03:25.325Z,100416.83
2018-07-23T23:06:23.305Z,100415.12
2018-07-23T23:09:22.362Z,100408.17
2018-07-23T23:12:19.942Z,100409.98
2018-07-23T23:15:18.038Z,100410.28
2018-07-23T23:18:15.578Z,100405.72
2018-07-23T23:21:12.743Z,100403.84
2018-07-23T23:24:10.813Z,100405.39
2018-07-23T23:27:08.070Z,100403.03
2018-07-23T23:30:06.182Z,100402.00
2018-07-23T23:33:03.314Z,100407.56
2018-07-23T23:36:01.330Z,100403.61
2018-07-23T23:38:59.323Z,100408.52
2018-07-23T23:41:57.431Z,100408.80
2018-07-23T23:44:54.671Z,100401.09
2018-07-23T23:47:51.994Z,100406.72
2018-07-23T23:50:49.281Z,100406.78
2018-07-23T23:53:47.321Z,100407.56
2018-07-23T23:56:44.910Z,100403.98
2018-07-23T23:59:42.878Z,100395.94
